sensor_id;sensor_type;location;lat;lon;timestamp;temperature;humidity
51908;DHT22;39320;53.214;6.556;2022-10-17T00:01:22;14.20;99.90
51908;DHT22;39320;53.214;6.556;2022-10-17T00:03:47;14.20;99.90
51908;DHT22;39320;53.214;6.556;2022-10-17T00:06:14;14.20;99.90
51908;DHT22;39320;53.214;6.556;2022-10-17T00:08:41;14.20;99.90
51908;DHT22;39320;53.214;6.556;2022-10-17T00:11:14;14.20;99.90
51908;DHT22;39320;53.214;6.556;2022-10-17T00:13:40;14.20;99.90
51908;DHT22;39320;53.214;6.556;2022-10-17T00:16:06;14.20;99.90
51908;DHT22;39320;53.214;6.556;2022-10-17T00:18:32;14.20;99.90
51908;DHT22;39320;53.214;6.556;2022-10-17T00:20:57;14.20;99.90
51908;DHT22;39320;53.214;6.556;2022-10-17T00:23:23;14.20;99.90
51908;DHT22;39320;53.214;6.556;2022-10-17T00:26:03;14.20;99.90
51908;DHT22;39320;53.214;6.556;2022-10-17T00:28:29;14.20;99.90
51908;DHT22;39320;53.214;6.556;2022-10-17T00:31:00;14.10;99.90
51908;DHT22;39320;53.214;6.556;2022-10-17T00:33:26;14.10;99.90
51908;DHT22;39320;53.214;6.556;2022-10-17T00:36:07;14.10;99.90
51908;DHT22;39320;53.214;6.556;2022-10-17T00:38:33;14.10;99.90
51908;DHT22;39320;53.214;6.556;2022-10-17T00:40:58;14.10;99.90
51908;DHT22;39320;53.214;6.556;2022-10-17T00:43:24;14.10;99.90
51908;DHT22;39320;53.214;6.556;2022-10-17T00:45:51;14.10;99.90
51908;DHT22;39320;53.214;6.556;2022-10-17T00:48:17;14.20;99.90
51908;DHT22;39320;53.214;6.556;2022-10-17T00:50:45;14.10;99.90
51908;DHT22;39320;53.214;6.556;2022-10-17T00:53:13;14.10;99.90
51908;DHT22;39320;53.214;6.556;2022-10-17T00:55:50;14.20;99.90
51908;DHT22;39320;53.214;6.556;2022-10-17T00:58:18;14.20;99.90
51908;DHT22;39320;53.214;6.556;2022-10-17T01:00:46;14.30;99.90
51908;DHT22;39320;53.214;6.556;2022-10-17T01:03:13;14.20;99.90
51908;DHT22;39320;53.214;6.556;2022-10-17T01:05:40;14.10;99.90
51908;DHT22;39320;53.214;6.556;2022-10-17T01:08:06;14.10;99.90
51908;DHT22;39320;53.214;6.556;2022-10-17T01:13:29;14.20;99.90
51908;DHT22;39320;53.214;6.556;2022-10-17T01:16:08;14.10;99.90
51908;DHT22;39320;53.214;6.556;2022-10-17T01:19:00;14.10;99.90
51908;DHT22;39320;53.214;6.556;2022-10-17T01:21:32;14.10;99.90
51908;DHT22;39320;53.214;6.556;2022-10-17T01:24:20;14.10;99.90
51908;DHT22;39320;53.214;6.556;2022-10-17T01:32:38;14.10;99.90
51908;DHT22;39320;53.214;6.556;2022-10-17T01:35:09;14.10;99.90
51908;DHT22;39320;53.214;6.556;2022-10-17T01:37:47;14.10;99.90
51908;DHT22;39320;53.214;6.556;2022-10-17T01:40:28;14.20;99.90
51908;DHT22;39320;53.214;6.556;2022-10-17T01:45:56;14.20;99.90
51908;DHT22;39320;53.214;6.556;2022-10-17T01:48:30;14.20;99.90
51908;DHT22;39320;53.214;6.556;2022-10-17T01:51:28;14.20;99.90
51908;DHT22;39320;53.214;6.556;2022-10-17T01:56:50;14.30;99.90
51908;DHT22;39320;53.214;6.556;2022-10-17T01:59:24;14.20;99.90
51908;DHT22;39320;53.214;6.556;2022-10-17T02:01:52;14.20;99.90
51908;DHT22;39320;53.214;6.556;2022-10-17T02:04:24;14.30;99.90
51908;DHT22;39320;53.214;6.556;2022-10-17T02:06:50;14.30;99.90
51908;DHT22;39320;53.214;6.556;2022-10-17T02:09:24;14.30;99.90
51908;DHT22;39320;53.214;6.556;2022-10-17T02:12:07;14.30;99.90
51908;DHT22;39320;53.214;6.556;2022-10-17T02:15:12;14.30;99.90
51908;DHT22;39320;53.214;6.556;2022-10-17T02:20:21;14.20;99.90
51908;DHT22;39320;53.214;6.556;2022-10-17T02:22:55;14.30;99.90
51908;DHT22;39320;53.214;6.556;2022-10-17T02:25:42;14.20;99.90
51908;DHT22;39320;53.214;6.556;2022-10-17T02:28:30;14.20;99.90
51908;DHT22;39320;53.214;6.556;2022-10-17T02:31:03;14.20;99.90
51908;DHT22;39320;53.214;6.556;2022-10-17T02:33:55;14.20;99.90
51908;DHT22;39320;53.214;6.556;2022-10-17T02:36:27;14.20;99.90
51908;DHT22;39320;53.214;6.556;2022-10-17T02:38:54;14.20;99.90
51908;DHT22;39320;53.214;6.556;2022-10-17T02:41:21;14.20;99.90
51908;DHT22;39320;53.214;6.556;2022-10-17T02:43:49;14.20;99.90
51908;DHT22;39320;53.214;6.556;2022-10-17T02:46:18;14.20;99.90
51908;DHT22;39320;53.214;6.556;2022-10-17T02:49:00;14.20;99.90
51908;DHT22;39320;53.214;6.556;2022-10-17T02:51:35;14.20;99.90
51908;DHT22;39320;53.214;6.556;2022-10-17T02:54:05;14.20;99.90
51908;DHT22;39320;53.214;6.556;2022-10-17T02:56:40;14.10;99.90
51908;DHT22;39320;53.214;6.556;2022-10-17T02:59:08;14.10;99.90
51908;DHT22;39320;53.214;6.556;2022-10-17T03:01:35;14.10;99.90
51908;DHT22;39320;53.214;6.556;2022-10-17T03:04:12;14.10;99.90
51908;DHT22;39320;53.214;6.556;2022-10-17T03:06:39;14.20;99.90
51908;DHT22;39320;53.214;6.556;2022-10-17T03:09:06;14.10;99.90
51908;DHT22;39320;53.214;6.556;2022-10-17T03:11:32;14.20;99.90
51908;DHT22;39320;53.214;6.556;2022-10-17T03:13:57;14.10;99.90
51908;DHT22;39320;53.214;6.556;2022-10-17T03:16:23;14.20;99.90
51908;DHT22;39320;53.214;6.556;2022-10-17T03:18:49;14.20;99.90
51908;DHT22;39320;53.214;6.556;2022-10-17T03:21:15;14.10;99.90
51908;DHT22;39320;53.214;6.556;2022-10-17T03:23:40;14.10;99.90
51908;DHT22;39320;53.214;6.556;2022-10-17T03:26:07;14.10;99.90
51908;DHT22;39320;53.214;6.556;2022-10-17T03:28:33;14.10;99.90
51908;DHT22;39320;53.214;6.556;2022-10-17T03:31:06;14.10;99.90
51908;DHT22;39320;53.214;6.556;2022-10-17T03:33:32;14.10;99.90
51908;DHT22;39320;53.214;6.556;2022-10-17T03:35:57;14.10;99.90
51908;DHT22;39320;53.214;6.556;2022-10-17T03:38:23;14.10;99.90
51908;DHT22;39320;53.214;6.556;2022-10-17T03:40:55;14.10;99.90
51908;DHT22;39320;53.214;6.556;2022-10-17T03:43:21;14.10;99.90
51908;DHT22;39320;53.214;6.556;2022-10-17T03:45:47;14.10;99.90
51908;DHT22;39320;53.214;6.556;2022-10-17T03:48:12;14.10;99.90
51908;DHT22;39320;53.214;6.556;2022-10-17T03:50:38;14.10;99.90
51908;DHT22;39320;53.214;6.556;2022-10-17T03:53:03;14.00;99.90
51908;DHT22;39320;53.214;6.556;2022-10-17T03:55:29;14.10;99.90
51908;DHT22;39320;53.214;6.556;2022-10-17T03:57:55;14.10;99.90
51908;DHT22;39320;53.214;6.556;2022-10-17T04:00:21;14.00;99.90
51908;DHT22;39320;53.214;6.556;2022-10-17T04:02:46;14.00;99.90
51908;DHT22;39320;53.214;6.556;2022-10-17T04:05:12;14.00;99.90
51908;DHT22;39320;53.214;6.556;2022-10-17T04:07:38;14.00;99.90
51908;DHT22;39320;53.214;6.556;2022-10-17T04:10:04;14.00;99.90
51908;DHT22;39320;53.214;6.556;2022-10-17T04:12:30;14.00;99.90
51908;DHT22;39320;53.214;6.556;2022-10-17T04:14:56;14.00;99.90
51908;DHT22;39320;53.214;6.556;2022-10-17T04:17:21;14.00;99.90
51908;DHT22;39320;53.214;6.556;2022-10-17T04:19:48;14.00;99.90
51908;DHT22;39320;53.214;6.556;2022-10-17T04:22:14;14.00;99.90
51908;DHT22;39320;53.214;6.556;2022-10-17T04:24:40;14.00;99.90
51908;DHT22;39320;53.214;6.556;2022-10-17T04:27:05;14.00;99.90
51908;DHT22;39320;53.214;6.556;2022-10-17T04:29:31;14.10;99.90
51908;DHT22;39320;53.214;6.556;2022-10-17T04:31:57;14.10;99.90
51908;DHT22;39320;53.214;6.556;2022-10-17T04:34:23;14.10;99.90
51908;DHT22;39320;53.214;6.556;2022-10-17T04:36:49;14.10;99.90
51908;DHT22;39320;53.214;6.556;2022-10-17T04:39:16;14.10;99.90
51908;DHT22;39320;53.214;6.556;2022-10-17T04:41:42;14.10;99.90
51908;DHT22;39320;53.214;6.556;2022-10-17T04:44:09;14.10;99.90
51908;DHT22;39320;53.214;6.556;2022-10-17T04:46:35;14.10;99.90
51908;DHT22;39320;53.214;6.556;2022-10-17T04:49:01;14.10;99.90
51908;DHT22;39320;53.214;6.556;2022-10-17T04:51:27;14.20;99.90
51908;DHT22;39320;53.214;6.556;2022-10-17T04:53:52;14.20;99.90
51908;DHT22;39320;53.214;6.556;2022-10-17T04:56:20;14.30;99.90
51908;DHT22;39320;53.214;6.556;2022-10-17T04:58:46;14.30;99.90
51908;DHT22;39320;53.214;6.556;2022-10-17T05:01:14;14.30;99.90
51908;DHT22;39320;53.214;6.556;2022-10-17T05:03:41;14.30;99.90
51908;DHT22;39320;53.214;6.556;2022-10-17T05:06:09;14.30;99.90
51908;DHT22;39320;53.214;6.556;2022-10-17T05:08:36;14.30;99.90
51908;DHT22;39320;53.214;6.556;2022-10-17T05:11:02;14.30;99.90
51908;DHT22;39320;53.214;6.556;2022-10-17T05:13:28;14.30;99.90
51908;DHT22;39320;53.214;6.556;2022-10-17T05:16:00;14.30;99.90
51908;DHT22;39320;53.214;6.556;2022-10-17T05:18:27;14.30;99.90
51908;DHT22;39320;53.214;6.556;2022-10-17T05:20:53;14.30;99.90
51908;DHT22;39320;53.214;6.556;2022-10-17T05:23:19;14.40;99.90
51908;DHT22;39320;53.214;6.556;2022-10-17T05:25:45;14.40;99.90
51908;DHT22;39320;53.214;6.556;2022-10-17T05:28:10;14.40;99.90
51908;DHT22;39320;53.214;6.556;2022-10-17T05:30:36;14.40;99.90
51908;DHT22;39320;53.214;6.556;2022-10-17T05:33:02;14.40;99.90
51908;DHT22;39320;53.214;6.556;2022-10-17T05:35:28;14.40;99.90
51908;DHT22;39320;53.214;6.556;2022-10-17T05:37:53;14.40;99.90
51908;DHT22;39320;53.214;6.556;2022-10-17T05:40:19;14.40;99.90
51908;DHT22;39320;53.214;6.556;2022-10-17T05:42:46;14.40;99.90
51908;DHT22;39320;53.214;6.556;2022-10-17T05:45:12;14.40;99.90
51908;DHT22;39320;53.214;6.556;2022-10-17T05:47:39;14.40;99.90
51908;DHT22;39320;53.214;6.556;2022-10-17T05:50:05;14.40;99.90
51908;DHT22;39320;53.214;6.556;2022-10-17T05:52:31;14.50;99.90
51908;DHT22;39320;53.214;6.556;2022-10-17T05:54:57;14.50;99.90
51908;DHT22;39320;53.214;6.556;2022-10-17T05:57:25;14.50;99.90
51908;DHT22;39320;53.214;6.556;2022-10-17T05:59:51;14.50;99.90
51908;DHT22;39320;53.214;6.556;2022-10-17T06:02:17;14.50;99.90
51908;DHT22;39320;53.214;6.556;2022-10-17T06:04:43;14.50;99.90
51908;DHT22;39320;53.214;6.556;2022-10-17T06:07:13;14.50;99.90
51908;DHT22;39320;53.214;6.556;2022-10-17T06:09:39;14.50;99.90
51908;DHT22;39320;53.214;6.556;2022-10-17T06:12:06;14.50;99.90
51908;DHT22;39320;53.214;6.556;2022-10-17T06:14:32;14.80;99.90
51908;DHT22;39320;53.214;6.556;2022-10-17T06:16:57;14.50;99.90
51908;DHT22;39320;53.214;6.556;2022-10-17T06:19:23;14.50;99.90
51908;DHT22;39320;53.214;6.556;2022-10-17T06:21:49;14.50;99.90
51908;DHT22;39320;53.214;6.556;2022-10-17T06:24:15;14.60;99.90
51908;DHT22;39320;53.214;6.556;2022-10-17T06:26:41;14.60;99.90
51908;DHT22;39320;53.214;6.556;2022-10-17T06:29:07;14.60;99.90
51908;DHT22;39320;53.214;6.556;2022-10-17T06:31:32;14.60;99.90
51908;DHT22;39320;53.214;6.556;2022-10-17T06:33:58;14.60;99.90
51908;DHT22;39320;53.214;6.556;2022-10-17T06:36:24;14.60;99.90
51908;DHT22;39320;53.214;6.556;2022-10-17T06:38:50;14.70;99.90
51908;DHT22;39320;53.214;6.556;2022-10-17T06:41:16;14.60;99.90
51908;DHT22;39320;53.214;6.556;2022-10-17T06:43:44;14.70;99.90
51908;DHT22;39320;53.214;6.556;2022-10-17T06:46:12;14.70;99.90
51908;DHT22;39320;53.214;6.556;2022-10-17T06:48:38;14.70;99.90
51908;DHT22;39320;53.214;6.556;2022-10-17T06:51:05;14.70;99.90
51908;DHT22;39320;53.214;6.556;2022-10-17T06:53:32;14.70;99.90
51908;DHT22;39320;53.214;6.556;2022-10-17T06:55:59;14.80;99.90
51908;DHT22;39320;53.214;6.556;2022-10-17T06:58:30;14.80;99.90
51908;DHT22;39320;53.214;6.556;2022-10-17T07:01:00;14.80;99.90
51908;DHT22;39320;53.214;6.556;2022-10-17T07:03:26;14.80;99.90
51908;DHT22;39320;53.214;6.556;2022-10-17T07:05:53;14.80;99.90
51908;DHT22;39320;53.214;6.556;2022-10-17T07:08:19;14.80;99.90
51908;DHT22;39320;53.214;6.556;2022-10-17T07:10:45;14.90;99.90
51908;DHT22;39320;53.214;6.556;2022-10-17T07:13:11;14.90;99.90
51908;DHT22;39320;53.214;6.556;2022-10-17T07:15:38;14.90;99.90
51908;DHT22;39320;53.214;6.556;2022-10-17T07:18:04;14.90;99.90
51908;DHT22;39320;53.214;6.556;2022-10-17T07:20:30;14.90;99.90
51908;DHT22;39320;53.214;6.556;2022-10-17T07:22:56;15.00;99.90
51908;DHT22;39320;53.214;6.556;2022-10-17T07:25:21;15.00;99.90
51908;DHT22;39320;53.214;6.556;2022-10-17T07:27:48;15.00;99.90
51908;DHT22;39320;53.214;6.556;2022-10-17T07:30:15;15.00;99.90
51908;DHT22;39320;53.214;6.556;2022-10-17T07:32:41;15.10;99.90
51908;DHT22;39320;53.214;6.556;2022-10-17T07:35:08;15.10;99.90
51908;DHT22;39320;53.214;6.556;2022-10-17T07:37:35;15.10;99.90
51908;DHT22;39320;53.214;6.556;2022-10-17T07:40:00;15.20;99.90
51908;DHT22;39320;53.214;6.556;2022-10-17T07:42:26;15.20;99.90
51908;DHT22;39320;53.214;6.556;2022-10-17T07:44:53;15.20;99.90
51908;DHT22;39320;53.214;6.556;2022-10-17T07:47:19;15.30;99.90
51908;DHT22;39320;53.214;6.556;2022-10-17T07:49:45;15.30;99.90
51908;DHT22;39320;53.214;6.556;2022-10-17T07:52:12;15.30;99.90
51908;DHT22;39320;53.214;6.556;2022-10-17T07:54:38;15.30;99.90
51908;DHT22;39320;53.214;6.556;2022-10-17T07:57:04;15.40;99.90
51908;DHT22;39320;53.214;6.556;2022-10-17T07:59:31;15.40;99.90
51908;DHT22;39320;53.214;6.556;2022-10-17T08:01:57;15.40;99.90
51908;DHT22;39320;53.214;6.556;2022-10-17T08:04:24;15.50;99.90
51908;DHT22;39320;53.214;6.556;2022-10-17T08:06:50;15.50;99.90
51908;DHT22;39320;53.214;6.556;2022-10-17T08:09:16;15.50;99.90
51908;DHT22;39320;53.214;6.556;2022-10-17T08:11:42;15.60;99.90
51908;DHT22;39320;53.214;6.556;2022-10-17T08:14:09;15.70;99.90
51908;DHT22;39320;53.214;6.556;2022-10-17T08:16:35;15.70;99.90
51908;DHT22;39320;53.214;6.556;2022-10-17T08:19:01;15.80;99.90
51908;DHT22;39320;53.214;6.556;2022-10-17T08:21:27;15.80;99.90
51908;DHT22;39320;53.214;6.556;2022-10-17T08:23:53;15.80;99.90
51908;DHT22;39320;53.214;6.556;2022-10-17T08:26:19;15.80;99.90
51908;DHT22;39320;53.214;6.556;2022-10-17T08:28:45;15.90;99.90
51908;DHT22;39320;53.214;6.556;2022-10-17T08:31:16;15.90;99.90
51908;DHT22;39320;53.214;6.556;2022-10-17T08:33:46;15.90;99.90
51908;DHT22;39320;53.214;6.556;2022-10-17T08:36:14;16.00;99.90
51908;DHT22;39320;53.214;6.556;2022-10-17T08:38:40;16.00;99.90
51908;DHT22;39320;53.214;6.556;2022-10-17T08:46:35;16.00;99.90
51908;DHT22;39320;53.214;6.556;2022-10-17T08:49:08;16.10;99.90
51908;DHT22;39320;53.214;6.556;2022-10-17T08:51:42;16.10;99.90
51908;DHT22;39320;53.214;6.556;2022-10-17T08:54:19;16.10;99.90
51908;DHT22;39320;53.214;6.556;2022-10-17T08:56:48;16.10;99.90
51908;DHT22;39320;53.214;6.556;2022-10-17T08:59:20;16.20;99.90
51908;DHT22;39320;53.214;6.556;2022-10-17T09:02:00;16.20;99.90
51908;DHT22;39320;53.214;6.556;2022-10-17T09:07:18;16.20;99.90
51908;DHT22;39320;53.214;6.556;2022-10-17T09:18:14;16.30;99.90
51908;DHT22;39320;53.214;6.556;2022-10-17T09:20:51;16.40;99.90
51908;DHT22;39320;53.214;6.556;2022-10-17T09:23:31;16.40;99.90
51908;DHT22;39320;53.214;6.556;2022-10-17T09:26:00;16.40;99.90
51908;DHT22;39320;53.214;6.556;2022-10-17T09:28:35;16.40;99.90
51908;DHT22;39320;53.214;6.556;2022-10-17T09:31:17;16.50;99.90
51908;DHT22;39320;53.214;6.556;2022-10-17T09:33:46;16.60;99.90
51908;DHT22;39320;53.214;6.556;2022-10-17T09:36:19;16.60;99.90
51908;DHT22;39320;53.214;6.556;2022-10-17T09:38:56;16.70;99.90
51908;DHT22;39320;53.214;6.556;2022-10-17T09:41:42;16.70;99.90
51908;DHT22;39320;53.214;6.556;2022-10-17T09:46:58;16.80;99.90
51908;DHT22;39320;53.214;6.556;2022-10-17T09:49:37;16.80;99.90
51908;DHT22;39320;53.214;6.556;2022-10-17T09:52:05;16.90;99.90
51908;DHT22;39320;53.214;6.556;2022-10-17T09:54:53;16.80;99.90
51908;DHT22;39320;53.214;6.556;2022-10-17T09:57:21;16.80;99.90
51908;DHT22;39320;53.214;6.556;2022-10-17T10:00:03;16.80;99.90
51908;DHT22;39320;53.214;6.556;2022-10-17T10:02:30;16.80;99.90
51908;DHT22;39320;53.214;6.556;2022-10-17T10:05:21;16.80;99.90
51908;DHT22;39320;53.214;6.556;2022-10-17T10:08:05;16.80;99.90
51908;DHT22;39320;53.214;6.556;2022-10-17T10:10:38;16.70;99.90
51908;DHT22;39320;53.214;6.556;2022-10-17T10:15:41;16.70;99.90
51908;DHT22;39320;53.214;6.556;2022-10-17T10:18:35;16.70;99.90
51908;DHT22;39320;53.214;6.556;2022-10-17T10:21:08;16.70;99.90
51908;DHT22;39320;53.214;6.556;2022-10-17T10:23:35;16.60;99.90
51908;DHT22;39320;53.214;6.556;2022-10-17T10:29:01;16.60;99.90
51908;DHT22;39320;53.214;6.556;2022-10-17T10:31:36;16.60;99.90
51908;DHT22;39320;53.214;6.556;2022-10-17T10:34:15;16.50;99.90
51908;DHT22;39320;53.214;6.556;2022-10-17T10:36:52;16.50;99.90
51908;DHT22;39320;53.214;6.556;2022-10-17T10:39:52;16.50;99.90
51908;DHT22;39320;53.214;6.556;2022-10-17T10:42:36;16.40;99.90
51908;DHT22;39320;53.214;6.556;2022-10-17T10:48:35;16.40;99.90
51908;DHT22;39320;53.214;6.556;2022-10-17T10:51:13;16.40;99.90
51908;DHT22;39320;53.214;6.556;2022-10-17T10:54:19;16.40;99.90
51908;DHT22;39320;53.214;6.556;2022-10-17T10:56:49;16.40;99.90
51908;DHT22;39320;53.214;6.556;2022-10-17T10:59:38;16.40;99.90
51908;DHT22;39320;53.214;6.556;2022-10-17T11:02:18;16.40;99.90
51908;DHT22;39320;53.214;6.556;2022-10-17T11:10:27;16.30;99.90
51908;DHT22;39320;53.214;6.556;2022-10-17T11:13:20;16.30;99.90
51908;DHT22;39320;53.214;6.556;2022-10-17T11:15:56;16.30;99.90
51908;DHT22;39320;53.214;6.556;2022-10-17T11:21:05;16.30;99.90
51908;DHT22;39320;53.214;6.556;2022-10-17T11:26:34;16.40;99.90
51908;DHT22;39320;53.214;6.556;2022-10-17T11:29:04;16.30;99.90
51908;DHT22;39320;53.214;6.556;2022-10-17T11:31:37;16.40;99.90
51908;DHT22;39320;53.214;6.556;2022-10-17T11:34:21;16.40;99.90
51908;DHT22;39320;53.214;6.556;2022-10-17T11:36:50;16.40;99.90
51908;DHT22;39320;53.214;6.556;2022-10-17T11:39:20;16.40;99.90
51908;DHT22;39320;53.214;6.556;2022-10-17T11:41:55;16.40;99.90
51908;DHT22;39320;53.214;6.556;2022-10-17T11:44:35;16.40;99.90
51908;DHT22;39320;53.214;6.556;2022-10-17T11:49:50;16.40;99.90
51908;DHT22;39320;53.214;6.556;2022-10-17T11:54:49;16.40;99.90
51908;DHT22;39320;53.214;6.556;2022-10-17T12:11:49;16.40;99.90
51908;DHT22;39320;53.214;6.556;2022-10-17T12:14:45;16.30;99.90
51908;DHT22;39320;53.214;6.556;2022-10-17T12:17:33;16.30;99.90
51908;DHT22;39320;53.214;6.556;2022-10-17T12:28:11;16.30;99.90
51908;DHT22;39320;53.214;6.556;2022-10-17T12:30:59;16.40;99.90
51908;DHT22;39320;53.214;6.556;2022-10-17T12:33:33;16.40;99.90
51908;DHT22;39320;53.214;6.556;2022-10-17T12:38:51;16.40;99.90
51908;DHT22;39320;53.214;6.556;2022-10-17T12:46:55;16.40;99.90
51908;DHT22;39320;53.214;6.556;2022-10-17T12:57:32;16.50;99.90
51908;DHT22;39320;53.214;6.556;2022-10-17T13:00:11;16.50;99.90
51908;DHT22;39320;53.214;6.556;2022-10-17T13:02:39;16.40;99.90
51908;DHT22;39320;53.214;6.556;2022-10-17T13:05:21;16.40;99.90
51908;DHT22;39320;53.214;6.556;2022-10-17T13:07:49;16.40;99.90
51908;DHT22;39320;53.214;6.556;2022-10-17T13:10:22;16.40;99.90
51908;DHT22;39320;53.214;6.556;2022-10-17T13:12:50;16.40;99.90
51908;DHT22;39320;53.214;6.556;2022-10-17T13:15:18;16.40;99.90
51908;DHT22;39320;53.214;6.556;2022-10-17T13:17:54;16.40;99.90
51908;DHT22;39320;53.214;6.556;2022-10-17T13:20:23;16.40;99.90
51908;DHT22;39320;53.214;6.556;2022-10-17T13:22:50;16.40;99.90
51908;DHT22;39320;53.214;6.556;2022-10-17T13:25:18;16.40;99.90
51908;DHT22;39320;53.214;6.556;2022-10-17T13:27:46;16.40;99.90
51908;DHT22;39320;53.214;6.556;2022-10-17T13:30:28;16.30;99.90
51908;DHT22;39320;53.214;6.556;2022-10-17T13:32:54;16.30;99.90
51908;DHT22;39320;53.214;6.556;2022-10-17T13:35:32;16.20;99.90
51908;DHT22;39320;53.214;6.556;2022-10-17T13:38:01;16.20;99.90
51908;DHT22;39320;53.214;6.556;2022-10-17T13:40:29;16.10;99.90
51908;DHT22;39320;53.214;6.556;2022-10-17T13:42:57;16.10;99.90
51908;DHT22;39320;53.214;6.556;2022-10-17T13:45:30;16.10;99.90
51908;DHT22;39320;53.214;6.556;2022-10-17T13:48:02;16.00;99.90
51908;DHT22;39320;53.214;6.556;2022-10-17T13:50:35;16.00;99.90
51908;DHT22;39320;53.214;6.556;2022-10-17T13:56:05;16.00;99.90
51908;DHT22;39320;53.214;6.556;2022-10-17T13:58:45;16.00;99.90
51908;DHT22;39320;53.214;6.556;2022-10-17T14:01:12;16.00;99.90
51908;DHT22;39320;53.214;6.556;2022-10-17T14:03:43;15.90;99.90
51908;DHT22;39320;53.214;6.556;2022-10-17T14:06:24;15.90;99.90
51908;DHT22;39320;53.214;6.556;2022-10-17T14:08:56;15.90;99.90
51908;DHT22;39320;53.214;6.556;2022-10-17T14:11:26;15.90;99.90
51908;DHT22;39320;53.214;6.556;2022-10-17T14:13:55;15.90;99.90
51908;DHT22;39320;53.214;6.556;2022-10-17T14:16:22;15.90;99.90
51908;DHT22;39320;53.214;6.556;2022-10-17T14:18:50;15.80;99.90
51908;DHT22;39320;53.214;6.556;2022-10-17T14:21:23;15.80;99.90
51908;DHT22;39320;53.214;6.556;2022-10-17T14:26:46;15.80;99.90
51908;DHT22;39320;53.214;6.556;2022-10-17T14:29:25;15.80;99.90
51908;DHT22;39320;53.214;6.556;2022-10-17T14:32:04;15.80;99.90
51908;DHT22;39320;53.214;6.556;2022-10-17T14:34:33;15.80;99.90
51908;DHT22;39320;53.214;6.556;2022-10-17T14:37:00;15.80;99.90
51908;DHT22;39320;53.214;6.556;2022-10-17T14:39:27;15.80;99.90
51908;DHT22;39320;53.214;6.556;2022-10-17T14:41:54;15.80;99.90
51908;DHT22;39320;53.214;6.556;2022-10-17T14:44:28;15.80;99.90
51908;DHT22;39320;53.214;6.556;2022-10-17T14:47:05;15.80;99.90
51908;DHT22;39320;53.214;6.556;2022-10-17T14:49:38;15.80;99.90
51908;DHT22;39320;53.214;6.556;2022-10-17T14:54:40;15.80;99.90
51908;DHT22;39320;53.214;6.556;2022-10-17T14:59:54;15.90;99.90
51908;DHT22;39320;53.214;6.556;2022-10-17T15:02:20;15.80;99.90
51908;DHT22;39320;53.214;6.556;2022-10-17T15:04:46;15.80;99.90
51908;DHT22;39320;53.214;6.556;2022-10-17T15:07:13;15.80;99.90
51908;DHT22;39320;53.214;6.556;2022-10-17T15:09:40;15.80;99.90
51908;DHT22;39320;53.214;6.556;2022-10-17T15:12:13;15.80;99.90
51908;DHT22;39320;53.214;6.556;2022-10-17T15:14:39;15.80;99.90
51908;DHT22;39320;53.214;6.556;2022-10-17T15:17:12;15.80;99.90
51908;DHT22;39320;53.214;6.556;2022-10-17T15:19:39;15.80;99.90
51908;DHT22;39320;53.214;6.556;2022-10-17T15:22:05;15.80;99.90
51908;DHT22;39320;53.214;6.556;2022-10-17T15:24:30;15.80;99.90
51908;DHT22;39320;53.214;6.556;2022-10-17T15:26:56;15.90;99.90
51908;DHT22;39320;53.214;6.556;2022-10-17T15:29:22;15.90;99.90
51908;DHT22;39320;53.214;6.556;2022-10-17T15:31:47;15.90;99.90
51908;DHT22;39320;53.214;6.556;2022-10-17T15:34:13;15.90;99.90
51908;DHT22;39320;53.214;6.556;2022-10-17T15:36:40;15.90;99.90
51908;DHT22;39320;53.214;6.556;2022-10-17T15:39:06;15.80;99.90
51908;DHT22;39320;53.214;6.556;2022-10-17T15:41:32;15.80;99.90
51908;DHT22;39320;53.214;6.556;2022-10-17T15:43:58;15.90;99.90
51908;DHT22;39320;53.214;6.556;2022-10-17T15:46:26;15.80;99.90
51908;DHT22;39320;53.214;6.556;2022-10-17T15:48:53;15.90;99.90
51908;DHT22;39320;53.214;6.556;2022-10-17T15:51:20;15.80;99.90
51908;DHT22;39320;53.214;6.556;2022-10-17T15:53:46;15.80;99.90
51908;DHT22;39320;53.214;6.556;2022-10-17T15:56:36;15.80;99.90
51908;DHT22;39320;53.214;6.556;2022-10-17T15:59:05;15.80;99.90
51908;DHT22;39320;53.214;6.556;2022-10-17T16:01:32;15.80;99.90
51908;DHT22;39320;53.214;6.556;2022-10-17T16:03:58;15.80;99.90
51908;DHT22;39320;53.214;6.556;2022-10-17T16:06:24;15.80;99.90
51908;DHT22;39320;53.214;6.556;2022-10-17T16:08:51;15.80;99.90
51908;DHT22;39320;53.214;6.556;2022-10-17T16:13:52;15.70;99.90
51908;DHT22;39320;53.214;6.556;2022-10-17T16:16:19;15.70;99.90
51908;DHT22;39320;53.214;6.556;2022-10-17T16:18:47;15.70;99.90
51908;DHT22;39320;53.214;6.556;2022-10-17T16:21:14;15.70;99.90
51908;DHT22;39320;53.214;6.556;2022-10-17T16:23:41;15.60;99.90
51908;DHT22;39320;53.214;6.556;2022-10-17T16:26:07;15.60;99.90
51908;DHT22;39320;53.214;6.556;2022-10-17T16:28:33;15.60;99.90
51908;DHT22;39320;53.214;6.556;2022-10-17T16:31:00;15.60;99.90
51908;DHT22;39320;53.214;6.556;2022-10-17T16:33:26;15.60;99.90
51908;DHT22;39320;53.214;6.556;2022-10-17T16:35:52;15.60;99.90
51908;DHT22;39320;53.214;6.556;2022-10-17T16:38:17;15.60;99.90
51908;DHT22;39320;53.214;6.556;2022-10-17T16:40:43;15.60;99.90
51908;DHT22;39320;53.214;6.556;2022-10-17T16:43:12;15.60;99.90
51908;DHT22;39320;53.214;6.556;2022-10-17T16:45:38;15.60;99.90
51908;DHT22;39320;53.214;6.556;2022-10-17T16:48:04;15.60;99.90
51908;DHT22;39320;53.214;6.556;2022-10-17T16:50:30;15.60;99.90
51908;DHT22;39320;53.214;6.556;2022-10-17T16:53:00;15.50;99.90
51908;DHT22;39320;53.214;6.556;2022-10-17T16:55:26;15.50;99.90
51908;DHT22;39320;53.214;6.556;2022-10-17T16:57:51;15.50;99.90
51908;DHT22;39320;53.214;6.556;2022-10-17T17:00:17;15.50;99.90
51908;DHT22;39320;53.214;6.556;2022-10-17T17:02:45;15.50;99.90
51908;DHT22;39320;53.214;6.556;2022-10-17T17:05:11;15.50;99.90
51908;DHT22;39320;53.214;6.556;2022-10-17T17:07:37;15.50;99.90
51908;DHT22;39320;53.214;6.556;2022-10-17T17:10:03;15.50;99.90
51908;DHT22;39320;53.214;6.556;2022-10-17T17:12:31;15.50;99.90
51908;DHT22;39320;53.214;6.556;2022-10-17T17:14:57;15.50;99.90
51908;DHT22;39320;53.214;6.556;2022-10-17T17:17:23;15.40;99.90
51908;DHT22;39320;53.214;6.556;2022-10-17T17:19:49;15.40;99.90
51908;DHT22;39320;53.214;6.556;2022-10-17T17:22:14;15.40;99.90
51908;DHT22;39320;53.214;6.556;2022-10-17T17:24:40;15.40;99.90
51908;DHT22;39320;53.214;6.556;2022-10-17T17:27:06;15.40;99.90
51908;DHT22;39320;53.214;6.556;2022-10-17T17:29:32;15.40;99.90
51908;DHT22;39320;53.214;6.556;2022-10-17T17:31:58;15.40;99.90
51908;DHT22;39320;53.214;6.556;2022-10-17T17:34:23;15.40;99.90
51908;DHT22;39320;53.214;6.556;2022-10-17T17:36:49;15.40;99.90
51908;DHT22;39320;53.214;6.556;2022-10-17T17:39:15;15.40;99.90
51908;DHT22;39320;53.214;6.556;2022-10-17T17:41:41;15.40;99.90